createdAt,value
2022-08-07T00:02:14.515Z,60.11
2022-08-07T00:17:55.640Z,61.58
2022-08-07T00:33:37.712Z,62.34
2022-08-07T00:49:24.559Z,63.31
2022-08-07T01:05:01.842Z,64.15
2022-08-07T01:20:44.544Z,64.49
2022-08-07T01:36:26.819Z,64.94
2022-08-07T01:52:09.370Z,65.75
2022-08-07T02:07:51.923Z,66.62
2022-08-07T02:23:34.355Z,66.18
2022-08-07T02:24:21.689Z,65.94
2022-08-07T02:40:03.838Z,67.04
2022-08-07T02:55:55.309Z,67.5
2022-08-07T03:11:29.691Z,67.9
2022-08-07T03:27:12.416Z,68.97
2022-08-07T03:42:55.210Z,68.97
2022-08-07T03:58:36.994Z,70.55
2022-08-07T04:14:19.661Z,69.69
2022-08-07T04:30:02.278Z,69.85
2022-08-07T04:45:45.205Z,68.84
2022-08-07T05:01:28.207Z,67.62
2022-08-07T05:17:11.611Z,66.47
2022-08-07T05:32:52.875Z,64.75
2022-08-07T05:48:35.440Z,63.27
2022-08-07T06:04:18.046Z,61.15
2022-08-07T06:20:00.406Z,58.12
2022-08-07T06:35:42.576Z,53.02
2022-08-07T06:51:25.254Z,50.28
2022-08-07T07:07:10.299Z,45.87
2022-08-07T07:22:50.990Z,45.02
2022-08-07T07:38:33.652Z,41.36
2022-08-07T07:54:16.134Z,40.23
2022-08-07T08:09:59.084Z,37.97
2022-08-07T08:25:42.050Z,37.33
2022-08-07T08:41:24.396Z,35.33
2022-08-07T08:57:06.796Z,28.58
2022-08-07T09:12:49.247Z,24.6
2022-08-07T09:28:32.140Z,26.08
2022-08-07T09:44:14.900Z,22.64
2022-08-07T09:59:57.752Z,22.46
2022-08-07T10:15:39.994Z,22.33
2022-08-07T10:31:22.174Z,21.14
2022-08-07T10:47:04.222Z,24.06
2022-08-07T11:02:46.455Z,22.29
2022-08-07T11:18:28.984Z,19.55
2022-08-07T11:34:11.353Z,21.77
2022-08-07T11:49:54.109Z,18.83
2022-08-07T12:05:36.151Z,16.77
2022-08-07T12:21:18.580Z,18.66
2022-08-07T12:37:01.013Z,21.33
2022-08-07T12:52:43.598Z,22.92
2022-08-07T13:08:26.302Z,23.98
2022-08-07T13:24:08.501Z,21.42
2022-08-07T13:39:51.114Z,23.37
2022-08-07T13:55:33.842Z,22.16
2022-08-07T14:11:16.488Z,25.34
2022-08-07T14:26:58.881Z,21.47
2022-08-07T14:42:41.228Z,17.77
2022-08-07T14:58:23.528Z,15.11
2022-08-07T15:14:05.560Z,15.04
2022-08-07T15:29:47.977Z,15.41
2022-08-07T15:45:30.016Z,15.72
2022-08-07T16:01:12.256Z,16.36
2022-08-07T16:16:55.115Z,20.38
2022-08-07T16:32:37.866Z,20.33
2022-08-07T16:48:19.915Z,19.43
2022-08-07T17:04:02.437Z,17.63
2022-08-07T17:19:44.333Z,19.42
2022-08-07T17:35:26.639Z,21.17
2022-08-07T17:51:09.337Z,24.37
2022-08-07T18:06:51.405Z,27.75
2022-08-07T18:22:34.195Z,30.47
2022-08-07T18:38:17.109Z,31.47
2022-08-07T18:53:59.628Z,33.9
2022-08-07T19:09:41.726Z,35.47
2022-08-07T19:25:24.215Z,37.1
2022-08-07T19:41:06.222Z,39.06
2022-08-07T19:56:48.746Z,40.66
2022-08-07T20:12:31.247Z,41.73
2022-08-07T20:28:14.020Z,43.01
2022-08-07T20:43:56.985Z,44.02
2022-08-07T20:59:39.881Z,44.58
2022-08-07T21:15:22.609Z,46.01
2022-08-07T21:46:46.715Z,48
2022-08-07T22:02:29.384Z,48.93
2022-08-07T22:18:11.530Z,49.56
2022-08-07T22:33:53.922Z,49.79
2022-08-07T22:49:36.636Z,49.57
2022-08-07T23:05:19.264Z,50.89
2022-08-07T23:21:01.572Z,51.49
2022-08-07T23:36:46.734Z,53.78
2022-08-07T23:52:53.406Z,53.73
